sensor_id;sensor_type;location;lat;lon;timestamp;pressure;altitude;pressure_sealevel;temperature;humidity
21742;BME280;11033;47.490;11.116;2023-03-26T00:01:15;92723.25;;;7.07;68.76
21742;BME280;11033;47.490;11.116;2023-03-26T00:03:41;92729.69;;;7.05;68.77
21742;BME280;11033;47.490;11.116;2023-03-26T00:06:14;92706.38;;;7.10;68.20
21742;BME280;11033;47.490;11.116;2023-03-26T00:08:42;92712.44;;;7.10;67.74
21742;BME280;11033;47.490;11.116;2023-03-26T00:11:10;92706.03;;;7.13;68.15
21742;BME280;11033;47.490;11.116;2023-03-26T00:13:35;92705.69;;;7.16;67.01
21742;BME280;11033;47.490;11.116;2023-03-26T00:16:01;92699.50;;;7.09;66.25
21742;BME280;11033;47.490;11.116;2023-03-26T00:18:28;92695.00;;;7.03;67.03
21742;BME280;11033;47.490;11.116;2023-03-26T00:20:57;92701.16;;;7.10;67.64
21742;BME280;11033;47.490;11.116;2023-03-26T00:23:23;92697.00;;;7.00;68.69
21742;BME280;11033;47.490;11.116;2023-03-26T00:25:49;92698.25;;;7.05;67.55
21742;BME280;11033;47.490;11.116;2023-03-26T00:28:16;92696.63;;;7.04;67.75
21742;BME280;11033;47.490;11.116;2023-03-26T00:30:41;92690.03;;;6.93;68.19
21742;BME280;11033;47.490;11.116;2023-03-26T00:33:07;92691.47;;;6.95;67.99
21742;BME280;11033;47.490;11.116;2023-03-26T00:35:36;92689.13;;;7.00;68.90
21742;BME280;11033;47.490;11.116;2023-03-26T00:38:01;92688.41;;;7.07;66.91
21742;BME280;11033;47.490;11.116;2023-03-26T00:40:27;92684.97;;;7.06;65.43
21742;BME280;11033;47.490;11.116;2023-03-26T00:42:53;92690.47;;;6.96;68.03
21742;BME280;11033;47.490;11.116;2023-03-26T00:45:19;92703.66;;;6.88;68.15
21742;BME280;11033;47.490;11.116;2023-03-26T00:47:46;92703.56;;;6.96;66.43
21742;BME280;11033;47.490;11.116;2023-03-26T00:50:11;92704.66;;;6.87;67.21
21742;BME280;11033;47.490;11.116;2023-03-26T00:52:43;92714.38;;;6.79;67.95
21742;BME280;11033;47.490;11.116;2023-03-26T00:55:09;92696.69;;;6.81;67.60
21742;BME280;11033;47.490;11.116;2023-03-26T00:57:35;92695.88;;;6.80;67.79
21742;BME280;11033;47.490;11.116;2023-03-26T01:00:04;92697.34;;;6.97;66.75
21742;BME280;11033;47.490;11.116;2023-03-26T01:02:31;92698.69;;;6.93;66.82
21742;BME280;11033;47.490;11.116;2023-03-26T01:04:57;92698.06;;;6.91;66.60
21742;BME280;11033;47.490;11.116;2023-03-26T01:07:26;92698.16;;;6.83;66.70
21742;BME280;11033;47.490;11.116;2023-03-26T01:09:55;92691.56;;;6.87;67.65
21742;BME280;11033;47.490;11.116;2023-03-26T01:12:23;92689.22;;;6.92;66.49
21742;BME280;11033;47.490;11.116;2023-03-26T01:14:51;92694.81;;;6.89;66.13
21742;BME280;11033;47.490;11.116;2023-03-26T01:17:18;92686.69;;;6.84;68.48
21742;BME280;11033;47.490;11.116;2023-03-26T01:22:23;92671.25;;;6.89;68.66
21742;BME280;11033;47.490;11.116;2023-03-26T01:24:50;92679.28;;;6.88;68.91
21742;BME280;11033;47.490;11.116;2023-03-26T01:30:30;92687.78;;;6.90;68.59
21742;BME280;11033;47.490;11.116;2023-03-26T01:35:57;92685.94;;;6.76;70.23
21742;BME280;11033;47.490;11.116;2023-03-26T01:44:02;92677.66;;;6.72;71.38
21742;BME280;11033;47.490;11.116;2023-03-26T01:46:32;92670.06;;;6.77;70.61
21742;BME280;11033;47.490;11.116;2023-03-26T01:49:02;92680.72;;;6.90;70.03
21742;BME280;11033;47.490;11.116;2023-03-26T01:51:31;92680.19;;;6.80;70.38
21742;BME280;11033;47.490;11.116;2023-03-26T01:53:57;92679.38;;;6.80;70.45
21742;BME280;11033;47.490;11.116;2023-03-26T01:56:45;92676.47;;;6.75;70.71
21742;BME280;11033;47.490;11.116;2023-03-26T02:02:03;92682.53;;;6.75;69.97
21742;BME280;11033;47.490;11.116;2023-03-26T02:04:44;92687.75;;;6.75;68.63
21742;BME280;11033;47.490;11.116;2023-03-26T02:07:22;92679.28;;;6.73;70.21
21742;BME280;11033;47.490;11.116;2023-03-26T02:09:53;92691.16;;;6.61;72.24
21742;BME280;11033;47.490;11.116;2023-03-26T02:12:22;92674.75;;;6.67;71.08
21742;BME280;11033;47.490;11.116;2023-03-26T02:14:48;92669.50;;;6.52;72.54
21742;BME280;11033;47.490;11.116;2023-03-26T02:17:14;92659.75;;;6.61;70.81
21742;BME280;11033;47.490;11.116;2023-03-26T02:19:41;92657.69;;;6.71;70.91
21742;BME280;11033;47.490;11.116;2023-03-26T02:22:10;92657.31;;;6.59;72.85
21742;BME280;11033;47.490;11.116;2023-03-26T02:24:40;92653.81;;;6.67;71.30
21742;BME280;11033;47.490;11.116;2023-03-26T02:27:05;92655.00;;;6.64;71.93
21742;BME280;11033;47.490;11.116;2023-03-26T02:29:35;92661.75;;;6.59;72.27
21742;BME280;11033;47.490;11.116;2023-03-26T02:32:07;92655.69;;;6.58;72.06
21742;BME280;11033;47.490;11.116;2023-03-26T02:34:33;92649.19;;;6.54;71.46
21742;BME280;11033;47.490;11.116;2023-03-26T02:36:58;92656.16;;;6.62;70.80
21742;BME280;11033;47.490;11.116;2023-03-26T02:39:25;92644.16;;;6.67;71.50
21742;BME280;11033;47.490;11.116;2023-03-26T02:41:50;92648.66;;;6.59;70.86
21742;BME280;11033;47.490;11.116;2023-03-26T02:44:16;92646.28;;;6.49;72.51
21742;BME280;11033;47.490;11.116;2023-03-26T02:46:41;92650.19;;;6.53;72.21
21742;BME280;11033;47.490;11.116;2023-03-26T02:49:06;92635.81;;;6.49;73.10
21742;BME280;11033;47.490;11.116;2023-03-26T02:51:32;92630.72;;;6.56;70.74
21742;BME280;11033;47.490;11.116;2023-03-26T02:53:59;92630.56;;;6.49;71.92
21742;BME280;11033;47.490;11.116;2023-03-26T02:56:25;92617.34;;;6.51;71.57
21742;BME280;11033;47.490;11.116;2023-03-26T02:58:51;92601.53;;;6.44;73.90
21742;BME280;11033;47.490;11.116;2023-03-26T03:01:16;92597.09;;;6.45;74.06
21742;BME280;11033;47.490;11.116;2023-03-26T03:03:42;92594.09;;;6.56;71.64
21742;BME280;11033;47.490;11.116;2023-03-26T03:06:07;92585.25;;;6.57;71.08
21742;BME280;11033;47.490;11.116;2023-03-26T03:08:33;92573.50;;;6.53;71.26
21742;BME280;11033;47.490;11.116;2023-03-26T03:11:10;92564.38;;;6.49;70.75
21742;BME280;11033;47.490;11.116;2023-03-26T03:13:35;92568.34;;;6.45;71.55
21742;BME280;11033;47.490;11.116;2023-03-26T03:16:01;92561.75;;;6.49;70.45
21742;BME280;11033;47.490;11.116;2023-03-26T03:18:26;92563.09;;;6.45;70.71
21742;BME280;11033;47.490;11.116;2023-03-26T03:20:52;92556.34;;;6.35;72.09
21742;BME280;11033;47.490;11.116;2023-03-26T03:23:18;92560.56;;;6.36;71.56
21742;BME280;11033;47.490;11.116;2023-03-26T03:25:43;92552.59;;;6.53;70.58
21742;BME280;11033;47.490;11.116;2023-03-26T03:28:09;92547.41;;;6.45;71.53
21742;BME280;11033;47.490;11.116;2023-03-26T03:30:35;92544.06;;;6.36;72.89
21742;BME280;11033;47.490;11.116;2023-03-26T03:33:01;92536.66;;;6.40;70.83
21742;BME280;11033;47.490;11.116;2023-03-26T03:35:27;92538.19;;;6.34;72.21
21742;BME280;11033;47.490;11.116;2023-03-26T03:37:53;92548.66;;;6.34;73.30
21742;BME280;11033;47.490;11.116;2023-03-26T03:40:19;92550.56;;;6.25;74.13
21742;BME280;11033;47.490;11.116;2023-03-26T03:42:45;92557.56;;;6.10;72.73
21742;BME280;11033;47.490;11.116;2023-03-26T03:45:12;92550.72;;;6.24;70.79
21742;BME280;11033;47.490;11.116;2023-03-26T03:47:37;92563.53;;;6.33;71.32
21742;BME280;11033;47.490;11.116;2023-03-26T03:50:03;92566.78;;;6.35;70.42
21742;BME280;11033;47.490;11.116;2023-03-26T03:52:29;92574.56;;;6.44;70.24
21742;BME280;11033;47.490;11.116;2023-03-26T03:54:55;92561.22;;;6.39;71.47
21742;BME280;11033;47.490;11.116;2023-03-26T03:57:22;92564.19;;;6.35;72.21
21742;BME280;11033;47.490;11.116;2023-03-26T03:59:47;92557.06;;;6.29;73.19
21742;BME280;11033;47.490;11.116;2023-03-26T04:02:13;92550.19;;;6.28;72.83
21742;BME280;11033;47.490;11.116;2023-03-26T04:04:38;92545.41;;;6.17;74.28
21742;BME280;11033;47.490;11.116;2023-03-26T04:07:05;92543.69;;;6.24;74.46
21742;BME280;11033;47.490;11.116;2023-03-26T04:09:30;92546.31;;;6.24;73.01
21742;BME280;11033;47.490;11.116;2023-03-26T04:11:56;92527.09;;;6.17;73.77
21742;BME280;11033;47.490;11.116;2023-03-26T04:14:21;92530.63;;;6.10;74.48
21742;BME280;11033;47.490;11.116;2023-03-26T04:16:46;92526.13;;;6.18;73.02
21742;BME280;11033;47.490;11.116;2023-03-26T04:19:13;92517.00;;;6.14;73.20
21742;BME280;11033;47.490;11.116;2023-03-26T04:21:39;92509.34;;;6.13;72.59
21742;BME280;11033;47.490;11.116;2023-03-26T04:24:07;92508.97;;;6.16;73.70
21742;BME280;11033;47.490;11.116;2023-03-26T04:26:33;92505.28;;;6.10;73.70
21742;BME280;11033;47.490;11.116;2023-03-26T04:29:01;92499.16;;;6.03;74.12
21742;BME280;11033;47.490;11.116;2023-03-26T04:31:28;92501.13;;;6.01;73.41
21742;BME280;11033;47.490;11.116;2023-03-26T04:33:56;92482.56;;;6.11;73.09
21742;BME280;11033;47.490;11.116;2023-03-26T04:36:27;92473.19;;;6.01;73.82
21742;BME280;11033;47.490;11.116;2023-03-26T04:38:53;92470.75;;;6.00;72.37
21742;BME280;11033;47.490;11.116;2023-03-26T04:41:19;92460.03;;;6.10;72.39
21742;BME280;11033;47.490;11.116;2023-03-26T04:43:46;92456.78;;;5.93;73.09
21742;BME280;11033;47.490;11.116;2023-03-26T04:46:21;92457.88;;;5.98;72.97
21742;BME280;11033;47.490;11.116;2023-03-26T04:48:48;92454.09;;;6.01;72.13
21742;BME280;11033;47.490;11.116;2023-03-26T04:51:14;92451.47;;;6.01;71.85
21742;BME280;11033;47.490;11.116;2023-03-26T04:53:51;92443.91;;;6.06;71.65
21742;BME280;11033;47.490;11.116;2023-03-26T04:59:00;92443.97;;;5.98;72.71
21742;BME280;11033;47.490;11.116;2023-03-26T05:01:26;92434.06;;;6.08;71.57
21742;BME280;11033;47.490;11.116;2023-03-26T05:03:53;92433.16;;;6.01;72.33
21742;BME280;11033;47.490;11.116;2023-03-26T05:06:18;92445.25;;;6.02;72.10
21742;BME280;11033;47.490;11.116;2023-03-26T05:08:44;92443.97;;;5.98;72.22
21742;BME280;11033;47.490;11.116;2023-03-26T05:11:09;92443.97;;;5.98;71.55
21742;BME280;11033;47.490;11.116;2023-03-26T05:13:36;92440.91;;;5.94;71.10
21742;BME280;11033;47.490;11.116;2023-03-26T05:16:01;92442.72;;;5.94;70.77
21742;BME280;11033;47.490;11.116;2023-03-26T05:18:27;92436.22;;;5.90;71.03
21742;BME280;11033;47.490;11.116;2023-03-26T05:20:52;92425.88;;;5.96;70.89
21742;BME280;11033;47.490;11.116;2023-03-26T05:23:17;92416.50;;;6.02;70.87
21742;BME280;11033;47.490;11.116;2023-03-26T05:25:43;92418.66;;;5.98;70.54
21742;BME280;11033;47.490;11.116;2023-03-26T05:28:09;92401.25;;;6.06;71.12
21742;BME280;11033;47.490;11.116;2023-03-26T05:30:34;92397.09;;;6.11;70.78
21742;BME280;11033;47.490;11.116;2023-03-26T05:33:00;92398.09;;;6.10;71.46
21742;BME280;11033;47.490;11.116;2023-03-26T05:35:27;92398.47;;;6.07;71.11
21742;BME280;11033;47.490;11.116;2023-03-26T05:37:52;92400.09;;;6.08;71.28
21742;BME280;11033;47.490;11.116;2023-03-26T05:40:18;92396.94;;;6.13;70.72
21742;BME280;11033;47.490;11.116;2023-03-26T05:42:44;92390.16;;;6.18;70.87
21742;BME280;11033;47.490;11.116;2023-03-26T05:45:12;92388.72;;;6.16;70.78
21742;BME280;11033;47.490;11.116;2023-03-26T05:47:38;92381.13;;;6.21;69.94
21742;BME280;11033;47.490;11.116;2023-03-26T05:50:04;92381.88;;;6.15;70.38
21742;BME280;11033;47.490;11.116;2023-03-26T05:52:30;92371.69;;;6.05;70.72
21742;BME280;11033;47.490;11.116;2023-03-26T05:54:56;92383.56;;;6.22;70.12
21742;BME280;11033;47.490;11.116;2023-03-26T05:57:21;92368.97;;;6.13;69.83
21742;BME280;11033;47.490;11.116;2023-03-26T05:59:48;92375.00;;;6.28;69.87
21742;BME280;11033;47.490;11.116;2023-03-26T06:02:13;92369.88;;;6.20;69.99
21742;BME280;11033;47.490;11.116;2023-03-26T06:04:39;92360.28;;;6.27;69.96
21742;BME280;11033;47.490;11.116;2023-03-26T06:07:08;92358.56;;;6.34;70.35
21742;BME280;11033;47.490;11.116;2023-03-26T06:09:38;92363.97;;;6.33;71.66
21742;BME280;11033;47.490;11.116;2023-03-26T06:12:08;92362.88;;;6.42;70.52
21742;BME280;11033;47.490;11.116;2023-03-26T06:14:34;92365.22;;;6.37;71.87
21742;BME280;11033;47.490;11.116;2023-03-26T06:17:00;92366.41;;;6.34;70.94
21742;BME280;11033;47.490;11.116;2023-03-26T06:19:25;92356.47;;;6.45;69.81
21742;BME280;11033;47.490;11.116;2023-03-26T06:21:51;92346.19;;;6.43;70.03
21742;BME280;11033;47.490;11.116;2023-03-26T06:24:16;92348.16;;;6.56;69.54
21742;BME280;11033;47.490;11.116;2023-03-26T06:26:44;92350.34;;;6.52;70.55
21742;BME280;11033;47.490;11.116;2023-03-26T06:29:10;92345.91;;;6.53;70.28
21742;BME280;11033;47.490;11.116;2023-03-26T06:31:35;92340.06;;;6.51;70.21
21742;BME280;11033;47.490;11.116;2023-03-26T06:34:01;92349.78;;;6.57;69.55
21742;BME280;11033;47.490;11.116;2023-03-26T06:36:26;92333.19;;;6.50;70.42
21742;BME280;11033;47.490;11.116;2023-03-26T06:38:51;92314.41;;;6.61;69.49
21742;BME280;11033;47.490;11.116;2023-03-26T06:41:17;92308.53;;;6.59;70.08
21742;BME280;11033;47.490;11.116;2023-03-26T06:43:42;92289.00;;;6.55;69.77
21742;BME280;11033;47.490;11.116;2023-03-26T06:46:08;92277.25;;;6.72;69.64
21742;BME280;11033;47.490;11.116;2023-03-26T06:48:33;92282.31;;;6.74;69.03
21742;BME280;11033;47.490;11.116;2023-03-26T06:50:58;92280.50;;;6.74;69.25
21742;BME280;11033;47.490;11.116;2023-03-26T06:53:24;92284.97;;;6.80;69.25
21742;BME280;11033;47.490;11.116;2023-03-26T06:55:49;92289.06;;;6.89;68.42
21742;BME280;11033;47.490;11.116;2023-03-26T06:58:16;92271.47;;;6.77;68.78
21742;BME280;11033;47.490;11.116;2023-03-26T07:00:41;92255.31;;;6.73;68.18
21742;BME280;11033;47.490;11.116;2023-03-26T07:03:07;92255.72;;;6.70;68.44
21742;BME280;11033;47.490;11.116;2023-03-26T07:05:32;92243.28;;;6.79;69.00
21742;BME280;11033;47.490;11.116;2023-03-26T07:07:58;92252.81;;;6.86;68.48
21742;BME280;11033;47.490;11.116;2023-03-26T07:10:23;92240.31;;;6.82;68.97
21742;BME280;11033;47.490;11.116;2023-03-26T07:12:48;92232.13;;;6.91;68.61
21742;BME280;11033;47.490;11.116;2023-03-26T07:15:13;92227.34;;;7.02;68.19
21742;BME280;11033;47.490;11.116;2023-03-26T07:17:39;92243.19;;;6.93;67.61
21742;BME280;11033;47.490;11.116;2023-03-26T07:20:06;92235.00;;;7.03;68.50
21742;BME280;11033;47.490;11.116;2023-03-26T07:22:32;92232.94;;;6.92;70.72
21742;BME280;11033;47.490;11.116;2023-03-26T07:24:58;92229.81;;;7.10;69.33
21742;BME280;11033;47.490;11.116;2023-03-26T07:27:39;92233.31;;;7.17;69.67
21742;BME280;11033;47.490;11.116;2023-03-26T07:30:13;92241.81;;;6.97;68.90
21742;BME280;11033;47.490;11.116;2023-03-26T07:32:54;92229.53;;;7.26;68.60
21742;BME280;11033;47.490;11.116;2023-03-26T07:35:26;92209.66;;;7.38;68.73
21742;BME280;11033;47.490;11.116;2023-03-26T07:41:23;92202.84;;;7.44;67.40
21742;BME280;11033;47.490;11.116;2023-03-26T07:44:16;92187.97;;;7.57;67.70
21742;BME280;11033;47.490;11.116;2023-03-26T07:46:46;92175.72;;;7.71;67.67
21742;BME280;11033;47.490;11.116;2023-03-26T07:49:13;92177.38;;;7.79;68.75
21742;BME280;11033;47.490;11.116;2023-03-26T07:51:39;92170.75;;;7.83;66.65
21742;BME280;11033;47.490;11.116;2023-03-26T07:54:05;92153.66;;;8.00;65.26
21742;BME280;11033;47.490;11.116;2023-03-26T07:56:54;92138.94;;;8.12;67.44
21742;BME280;11033;47.490;11.116;2023-03-26T07:59:30;92143.59;;;8.17;64.67
21742;BME280;11033;47.490;11.116;2023-03-26T08:04:50;92150.25;;;8.33;64.74
21742;BME280;11033;47.490;11.116;2023-03-26T08:10:19;92153.50;;;8.35;62.45
21742;BME280;11033;47.490;11.116;2023-03-26T08:15:28;92171.84;;;8.21;62.65
21742;BME280;11033;47.490;11.116;2023-03-26T08:20:50;92166.97;;;8.18;61.22
21742;BME280;11033;47.490;11.116;2023-03-26T08:23:41;92162.34;;;8.20;61.83
21742;BME280;11033;47.490;11.116;2023-03-26T08:31:35;92135.78;;;8.50;62.58
21742;BME280;11033;47.490;11.116;2023-03-26T08:34:03;92130.31;;;8.38;59.09
21742;BME280;11033;47.490;11.116;2023-03-26T08:36:28;92128.72;;;8.50;60.79
21742;BME280;11033;47.490;11.116;2023-03-26T08:38:54;92129.72;;;8.63;60.69
21742;BME280;11033;47.490;11.116;2023-03-26T08:44:24;92144.63;;;8.75;60.50
21742;BME280;11033;47.490;11.116;2023-03-26T08:52:52;92144.63;;;8.88;60.09
21742;BME280;11033;47.490;11.116;2023-03-26T09:26:05;92138.75;;;8.93;60.49
21742;BME280;11033;47.490;11.116;2023-03-26T09:31:13;92123.78;;;9.07;59.49
21742;BME280;11033;47.490;11.116;2023-03-26T09:33:50;92118.56;;;8.94;60.08
21742;BME280;11033;47.490;11.116;2023-03-26T09:36:20;92114.50;;;8.98;59.95
21742;BME280;11033;47.490;11.116;2023-03-26T09:39:08;92099.94;;;9.15;60.25
21742;BME280;11033;47.490;11.116;2023-03-26T09:41:43;92097.47;;;9.27;59.66
21742;BME280;11033;47.490;11.116;2023-03-26T09:55:30;92111.09;;;9.55;59.06
21742;BME280;11033;47.490;11.116;2023-03-26T09:58:34;92106.88;;;9.47;57.25
21742;BME280;11033;47.490;11.116;2023-03-26T10:03:56;92110.16;;;9.36;57.80
21742;BME280;11033;47.490;11.116;2023-03-26T10:06:43;92123.31;;;9.36;58.24
21742;BME280;11033;47.490;11.116;2023-03-26T10:09:55;92129.25;;;9.63;59.56
21742;BME280;11033;47.490;11.116;2023-03-26T10:15:16;92130.78;;;9.84;59.90
21742;BME280;11033;47.490;11.116;2023-03-26T10:17:59;92128.78;;;9.73;59.82
21742;BME280;11033;47.490;11.116;2023-03-26T10:23:20;92129.09;;;9.96;59.68
21742;BME280;11033;47.490;11.116;2023-03-26T10:26:04;92140.25;;;9.92;59.04
21742;BME280;11033;47.490;11.116;2023-03-26T10:31:46;92140.88;;;9.87;60.03
21742;BME280;11033;47.490;11.116;2023-03-26T10:37:49;92145.66;;;10.03;60.02
21742;BME280;11033;47.490;11.116;2023-03-26T10:40:22;92142.34;;;10.14;60.27
21742;BME280;11033;47.490;11.116;2023-03-26T10:43:09;92154.47;;;10.15;60.72
21742;BME280;11033;47.490;11.116;2023-03-26T10:48:49;92142.78;;;10.11;61.97
21742;BME280;11033;47.490;11.116;2023-03-26T10:51:32;92129.88;;;10.35;61.71
21742;BME280;11033;47.490;11.116;2023-03-26T10:54:14;92124.38;;;10.43;59.55
21742;BME280;11033;47.490;11.116;2023-03-26T10:56:47;92128.88;;;10.36;59.19
21742;BME280;11033;47.490;11.116;2023-03-26T10:59:15;92131.75;;;10.28;59.79
21742;BME280;11033;47.490;11.116;2023-03-26T11:01:54;92135.31;;;10.40;60.56
21742;BME280;11033;47.490;11.116;2023-03-26T11:04:46;92129.81;;;10.48;61.31
21742;BME280;11033;47.490;11.116;2023-03-26T11:07:38;92131.69;;;10.66;61.97
21742;BME280;11033;47.490;11.116;2023-03-26T11:10:23;92122.63;;;10.62;60.80
21742;BME280;11033;47.490;11.116;2023-03-26T11:12:52;92119.00;;;10.56;60.99
21742;BME280;11033;47.490;11.116;2023-03-26T11:15:55;92117.19;;;11.00;60.36
21742;BME280;11033;47.490;11.116;2023-03-26T11:18:48;92112.28;;;11.03;60.42
21742;BME280;11033;47.490;11.116;2023-03-26T11:21:23;92116.53;;;11.04;61.03
21742;BME280;11033;47.490;11.116;2023-03-26T11:27:18;92119.78;;;11.06;61.45
21742;BME280;11033;47.490;11.116;2023-03-26T11:34:36;92097.00;;;10.94;60.76
21742;BME280;11033;47.490;11.116;2023-03-26T11:37:10;92093.59;;;11.11;60.12
21742;BME280;11033;47.490;11.116;2023-03-26T11:39:46;92083.84;;;11.49;59.73
21742;BME280;11033;47.490;11.116;2023-03-26T11:42:14;92084.56;;;11.01;59.46
21742;BME280;11033;47.490;11.116;2023-03-26T11:44:53;92079.53;;;11.36;59.44
21742;BME280;11033;47.490;11.116;2023-03-26T11:47:23;92066.41;;;11.48;61.34
21742;BME280;11033;47.490;11.116;2023-03-26T11:49:54;92061.53;;;11.63;59.65
21742;BME280;11033;47.490;11.116;2023-03-26T11:52:24;92053.75;;;11.68;58.87
21742;BME280;11033;47.490;11.116;2023-03-26T11:54:50;92061.25;;;11.71;59.55
21742;BME280;11033;47.490;11.116;2023-03-26T11:57:28;92052.91;;;11.56;60.68
21742;BME280;11033;47.490;11.116;2023-03-26T12:00:02;92050.09;;;11.69;59.98
21742;BME280;11033;47.490;11.116;2023-03-26T12:02:38;92049.38;;;11.62;61.27
21742;BME280;11033;47.490;11.116;2023-03-26T12:05:20;92056.13;;;11.76;59.65
21742;BME280;11033;47.490;11.116;2023-03-26T12:07:48;92045.72;;;11.81;59.38
21742;BME280;11033;47.490;11.116;2023-03-26T12:10:21;92040.47;;;11.93;58.99
21742;BME280;11033;47.490;11.116;2023-03-26T12:12:47;92031.69;;;12.11;58.85
21742;BME280;11033;47.490;11.116;2023-03-26T12:15:18;92036.75;;;12.24;58.99
21742;BME280;11033;47.490;11.116;2023-03-26T12:17:44;92041.69;;;12.32;58.16
21742;BME280;11033;47.490;11.116;2023-03-26T12:22:49;92028.72;;;12.19;57.39
21742;BME280;11033;47.490;11.116;2023-03-26T12:25:17;92024.47;;;12.29;56.85
21742;BME280;11033;47.490;11.116;2023-03-26T12:27:46;92027.91;;;12.18;55.54
21742;BME280;11033;47.490;11.116;2023-03-26T12:30:33;92034.50;;;12.39;56.49
21742;BME280;11033;47.490;11.116;2023-03-26T12:33:02;92038.34;;;12.13;56.65
21742;BME280;11033;47.490;11.116;2023-03-26T12:35:31;92049.38;;;12.22;56.75
21742;BME280;11033;47.490;11.116;2023-03-26T12:40:46;92030.03;;;12.51;57.35
21742;BME280;11033;47.490;11.116;2023-03-26T12:43:28;92022.34;;;12.38;56.26
21742;BME280;11033;47.490;11.116;2023-03-26T12:45:56;92015.03;;;12.10;55.46
21742;BME280;11033;47.490;11.116;2023-03-26T12:48:23;92014.03;;;12.23;56.20
21742;BME280;11033;47.490;11.116;2023-03-26T12:56:19;92023.59;;;11.82;55.81
21742;BME280;11033;47.490;11.116;2023-03-26T12:59:31;92014.63;;;11.83;56.01
21742;BME280;11033;47.490;11.116;2023-03-26T13:05:01;92029.22;;;11.37;56.40
21742;BME280;11033;47.490;11.116;2023-03-26T13:10:35;92027.09;;;11.28;57.93
21742;BME280;11033;47.490;11.116;2023-03-26T13:15:37;91996.53;;;11.38;59.08
21742;BME280;11033;47.490;11.116;2023-03-26T13:18:32;92014.94;;;10.90;57.66
21742;BME280;11033;47.490;11.116;2023-03-26T13:23:54;91991.03;;;10.92;55.61
21742;BME280;11033;47.490;11.116;2023-03-26T13:26:34;91980.34;;;10.87;54.61
21742;BME280;11033;47.490;11.116;2023-03-26T13:37:47;91962.50;;;10.70;53.27
21742;BME280;11033;47.490;11.116;2023-03-26T13:40:40;91978.28;;;10.70;53.57
21742;BME280;11033;47.490;11.116;2023-03-26T13:43:21;91965.56;;;10.49;52.77
21742;BME280;11033;47.490;11.116;2023-03-26T13:48:54;91970.41;;;10.52;54.66
21742;BME280;11033;47.490;11.116;2023-03-26T13:51:30;91962.22;;;10.60;54.28
21742;BME280;11033;47.490;11.116;2023-03-26T13:54:15;91962.78;;;10.62;54.08
21742;BME280;11033;47.490;11.116;2023-03-26T13:56:46;91961.09;;;10.68;53.55
21742;BME280;11033;47.490;11.116;2023-03-26T13:59:25;91957.81;;;10.72;53.69
21742;BME280;11033;47.490;11.116;2023-03-26T14:01:59;91964.25;;;10.58;51.51
21742;BME280;11033;47.490;11.116;2023-03-26T14:05:04;91960.53;;;10.66;51.22
21742;BME280;11033;47.490;11.116;2023-03-26T14:10:14;91961.31;;;10.48;49.70
21742;BME280;11033;47.490;11.116;2023-03-26T14:15:40;91952.38;;;10.31;47.69
21742;BME280;11033;47.490;11.116;2023-03-26T14:21:11;91946.88;;;10.07;45.36
21742;BME280;11033;47.490;11.116;2023-03-26T14:31:57;91963.22;;;9.91;45.11
21742;BME280;11033;47.490;11.116;2023-03-26T14:34:41;91948.03;;;9.93;45.69
21742;BME280;11033;47.490;11.116;2023-03-26T14:46:02;91926.16;;;9.68;48.18
21742;BME280;11033;47.490;11.116;2023-03-26T14:54:18;91888.09;;;9.77;49.12
21742;BME280;11033;47.490;11.116;2023-03-26T15:11:33;91892.50;;;9.83;50.06
21742;BME280;11033;47.490;11.116;2023-03-26T15:22:25;91896.59;;;9.72;53.38
21742;BME280;11033;47.490;11.116;2023-03-26T15:25:37;91898.63;;;9.77;51.79
21742;BME280;11033;47.490;11.116;2023-03-26T15:34:10;91887.88;;;9.53;51.45
21742;BME280;11033;47.490;11.116;2023-03-26T15:37:18;91889.63;;;9.60;50.76
21742;BME280;11033;47.490;11.116;2023-03-26T15:40:24;91889.03;;;9.58;50.56
21742;BME280;11033;47.490;11.116;2023-03-26T15:43:07;91885.41;;;9.59;50.78
21742;BME280;11033;47.490;11.116;2023-03-26T15:45:41;91871.66;;;9.57;50.76
21742;BME280;11033;47.490;11.116;2023-03-26T15:51:00;91873.13;;;9.52;52.47
21742;BME280;11033;47.490;11.116;2023-03-26T15:53:34;91866.41;;;9.57;51.95
21742;BME280;11033;47.490;11.116;2023-03-26T15:59:24;91867.63;;;9.54;51.60
21742;BME280;11033;47.490;11.116;2023-03-26T16:04:55;91872.41;;;9.64;54.40
21742;BME280;11033;47.490;11.116;2023-03-26T16:10:24;91862.03;;;9.69;54.27
21742;BME280;11033;47.490;11.116;2023-03-26T16:13:16;91877.81;;;9.69;55.46
21742;BME280;11033;47.490;11.116;2023-03-26T16:15:39;91864.75;;;9.62;56.35
21742;BME280;11033;47.490;11.116;2023-03-26T16:20:51;91884.59;;;9.58;56.64
21742;BME280;11033;47.490;11.116;2023-03-26T16:23:34;91880.09;;;9.65;56.32
21742;BME280;11033;47.490;11.116;2023-03-26T16:26:21;91875.19;;;9.69;56.86
21742;BME280;11033;47.490;11.116;2023-03-26T16:31:22;91873.28;;;9.58;57.09
21742;BME280;11033;47.490;11.116;2023-03-26T16:36:37;91863.19;;;9.54;58.22
21742;BME280;11033;47.490;11.116;2023-03-26T16:44:26;91833.97;;;9.44;58.07
21742;BME280;11033;47.490;11.116;2023-03-26T16:52:43;91814.06;;;9.30;59.20
21742;BME280;11033;47.490;11.116;2023-03-26T16:55:22;91814.06;;;9.30;58.77
21742;BME280;11033;47.490;11.116;2023-03-26T17:01:15;91813.81;;;9.13;60.20
21742;BME280;11033;47.490;11.116;2023-03-26T17:04:04;91827.22;;;8.99;62.30
21742;BME280;11033;47.490;11.116;2023-03-26T17:12:13;91890.25;;;8.99;59.88
21742;BME280;11033;47.490;11.116;2023-03-26T17:18:00;91912.88;;;9.00;60.26
21742;BME280;11033;47.490;11.116;2023-03-26T17:20:50;91928.75;;;8.80;61.36
21742;BME280;11033;47.490;11.116;2023-03-26T17:26:10;91950.97;;;8.77;62.66
21742;BME280;11033;47.490;11.116;2023-03-26T17:29:23;92017.84;;;8.68;64.42
21742;BME280;11033;47.490;11.116;2023-03-26T17:34:32;92047.03;;;7.33;72.26
21742;BME280;11033;47.490;11.116;2023-03-26T17:36:58;91987.81;;;7.45;70.88
21742;BME280;11033;47.490;11.116;2023-03-26T17:44:58;92024.03;;;7.22;71.71
21742;BME280;11033;47.490;11.116;2023-03-26T17:47:26;92021.22;;;7.17;71.07